sensor_id;sensor_type;location;lat;lon;timestamp;temperature;humidity
7720;DHT22;3902;49.474;8.616;2022-09-01T00:02:04;20.70;99.90
7720;DHT22;3902;49.474;8.616;2022-09-01T00:04:33;20.60;99.90
7720;DHT22;3902;49.474;8.616;2022-09-01T00:07:00;20.60;99.90
7720;DHT22;3902;49.474;8.616;2022-09-01T00:09:25;20.60;99.90
7720;DHT22;3902;49.474;8.616;2022-09-01T00:11:53;20.60;99.90
7720;DHT22;3902;49.474;8.616;2022-09-01T00:14:22;20.60;99.90
7720;DHT22;3902;49.474;8.616;2022-09-01T00:16:48;20.50;99.90
7720;DHT22;3902;49.474;8.616;2022-09-01T00:19:14;20.60;99.90
7720;DHT22;3902;49.474;8.616;2022-09-01T00:21:42;20.50;99.90
7720;DHT22;3902;49.474;8.616;2022-09-01T00:24:09;20.50;99.90
7720;DHT22;3902;49.474;8.616;2022-09-01T00:26:34;20.50;99.90
7720;DHT22;3902;49.474;8.616;2022-09-01T00:29:00;20.50;99.90
7720;DHT22;3902;49.474;8.616;2022-09-01T00:31:27;20.50;99.90
7720;DHT22;3902;49.474;8.616;2022-09-01T00:33:53;20.40;99.90
7720;DHT22;3902;49.474;8.616;2022-09-01T00:36:19;20.40;99.90
7720;DHT22;3902;49.474;8.616;2022-09-01T00:38:46;20.40;99.90
7720;DHT22;3902;49.474;8.616;2022-09-01T00:41:12;20.40;99.90
7720;DHT22;3902;49.474;8.616;2022-09-01T00:43:44;20.30;99.90
7720;DHT22;3902;49.474;8.616;2022-09-01T00:46:14;20.30;99.90
7720;DHT22;3902;49.474;8.616;2022-09-01T00:48:40;20.30;99.90
7720;DHT22;3902;49.474;8.616;2022-09-01T00:51:07;20.20;99.90
7720;DHT22;3902;49.474;8.616;2022-09-01T00:53:35;20.00;99.90
7720;DHT22;3902;49.474;8.616;2022-09-01T00:56:03;19.90;99.90
7720;DHT22;3902;49.474;8.616;2022-09-01T00:58:30;20.00;99.90
7720;DHT22;3902;49.474;8.616;2022-09-01T01:00:55;20.00;99.90
7720;DHT22;3902;49.474;8.616;2022-09-01T01:03:21;20.00;99.90
7720;DHT22;3902;49.474;8.616;2022-09-01T01:05:53;20.10;99.90
7720;DHT22;3902;49.474;8.616;2022-09-01T01:08:27;20.00;99.90
7720;DHT22;3902;49.474;8.616;2022-09-01T01:11:00;19.90;99.90
7720;DHT22;3902;49.474;8.616;2022-09-01T01:13:25;20.00;99.90
7720;DHT22;3902;49.474;8.616;2022-09-01T01:15:53;20.00;99.90
7720;DHT22;3902;49.474;8.616;2022-09-01T01:18:18;20.00;99.90
7720;DHT22;3902;49.474;8.616;2022-09-01T01:20:44;19.90;99.90
7720;DHT22;3902;49.474;8.616;2022-09-01T01:23:35;20.00;99.90
7720;DHT22;3902;49.474;8.616;2022-09-01T01:26:05;20.10;99.90
7720;DHT22;3902;49.474;8.616;2022-09-01T01:28:34;20.10;99.90
7720;DHT22;3902;49.474;8.616;2022-09-01T01:31:04;20.10;99.90
7720;DHT22;3902;49.474;8.616;2022-09-01T01:33:37;20.10;99.90
7720;DHT22;3902;49.474;8.616;2022-09-01T01:36:28;20.10;99.90
7720;DHT22;3902;49.474;8.616;2022-09-01T01:39:03;20.10;99.90
7720;DHT22;3902;49.474;8.616;2022-09-01T01:41:30;20.10;99.90
7720;DHT22;3902;49.474;8.616;2022-09-01T01:43:58;20.10;99.90
7720;DHT22;3902;49.474;8.616;2022-09-01T01:46:25;20.10;99.90
7720;DHT22;3902;49.474;8.616;2022-09-01T01:48:51;20.10;99.90
7720;DHT22;3902;49.474;8.616;2022-09-01T01:51:19;20.10;99.90
7720;DHT22;3902;49.474;8.616;2022-09-01T01:53:46;20.10;99.90
7720;DHT22;3902;49.474;8.616;2022-09-01T01:56:12;20.10;99.90
7720;DHT22;3902;49.474;8.616;2022-09-01T01:58:38;20.10;99.90
7720;DHT22;3902;49.474;8.616;2022-09-01T02:01:05;20.10;99.90
7720;DHT22;3902;49.474;8.616;2022-09-01T02:03:33;20.10;99.90
7720;DHT22;3902;49.474;8.616;2022-09-01T02:06:05;20.10;99.90
7720;DHT22;3902;49.474;8.616;2022-09-01T02:08:33;20.10;99.90
7720;DHT22;3902;49.474;8.616;2022-09-01T02:11:01;20.10;99.90
7720;DHT22;3902;49.474;8.616;2022-09-01T02:13:27;20.00;99.90
7720;DHT22;3902;49.474;8.616;2022-09-01T02:16:12;20.00;99.90
7720;DHT22;3902;49.474;8.616;2022-09-01T02:18:41;20.00;99.90
7720;DHT22;3902;49.474;8.616;2022-09-01T02:21:09;20.00;99.90
7720;DHT22;3902;49.474;8.616;2022-09-01T02:23:37;20.00;99.90
7720;DHT22;3902;49.474;8.616;2022-09-01T02:26:04;20.00;99.90
7720;DHT22;3902;49.474;8.616;2022-09-01T02:28:34;20.00;99.90
7720;DHT22;3902;49.474;8.616;2022-09-01T02:31:02;19.90;99.90
7720;DHT22;3902;49.474;8.616;2022-09-01T02:33:29;20.00;99.90
7720;DHT22;3902;49.474;8.616;2022-09-01T02:35:58;19.90;99.90
7720;DHT22;3902;49.474;8.616;2022-09-01T02:38:24;19.90;99.90
7720;DHT22;3902;49.474;8.616;2022-09-01T02:40:52;19.90;99.90
7720;DHT22;3902;49.474;8.616;2022-09-01T02:43:19;19.90;99.90
7720;DHT22;3902;49.474;8.616;2022-09-01T02:45:47;19.90;99.90
7720;DHT22;3902;49.474;8.616;2022-09-01T02:48:17;19.90;99.90
7720;DHT22;3902;49.474;8.616;2022-09-01T02:50:43;19.90;99.90
7720;DHT22;3902;49.474;8.616;2022-09-01T02:53:08;19.90;99.90
7720;DHT22;3902;49.474;8.616;2022-09-01T02:55:39;19.90;99.90
7720;DHT22;3902;49.474;8.616;2022-09-01T02:58:06;19.80;99.90
7720;DHT22;3902;49.474;8.616;2022-09-01T03:00:37;19.80;99.90
7720;DHT22;3902;49.474;8.616;2022-09-01T03:03:05;19.80;99.90
7720;DHT22;3902;49.474;8.616;2022-09-01T03:05:32;19.80;99.90
7720;DHT22;3902;49.474;8.616;2022-09-01T03:08:02;19.70;99.90
7720;DHT22;3902;49.474;8.616;2022-09-01T03:10:30;19.70;99.90
7720;DHT22;3902;49.474;8.616;2022-09-01T03:13:18;19.80;99.90
7720;DHT22;3902;49.474;8.616;2022-09-01T03:15:45;19.80;99.90
7720;DHT22;3902;49.474;8.616;2022-09-01T03:18:13;19.80;99.90
7720;DHT22;3902;49.474;8.616;2022-09-01T03:20:41;19.70;99.90
7720;DHT22;3902;49.474;8.616;2022-09-01T03:23:13;19.70;99.90
7720;DHT22;3902;49.474;8.616;2022-09-01T03:25:42;19.70;99.90
7720;DHT22;3902;49.474;8.616;2022-09-01T03:28:08;19.70;99.90
7720;DHT22;3902;49.474;8.616;2022-09-01T03:30:35;19.70;99.90
7720;DHT22;3902;49.474;8.616;2022-09-01T03:33:05;19.60;99.90
7720;DHT22;3902;49.474;8.616;2022-09-01T03:35:31;19.60;99.90
7720;DHT22;3902;49.474;8.616;2022-09-01T03:37:58;19.60;99.90
7720;DHT22;3902;49.474;8.616;2022-09-01T03:40:27;19.60;99.90
7720;DHT22;3902;49.474;8.616;2022-09-01T03:42:54;19.60;99.90
7720;DHT22;3902;49.474;8.616;2022-09-01T03:45:20;19.60;99.90
7720;DHT22;3902;49.474;8.616;2022-09-01T03:47:46;19.60;99.90
7720;DHT22;3902;49.474;8.616;2022-09-01T03:50:16;19.60;99.90
7720;DHT22;3902;49.474;8.616;2022-09-01T03:52:50;19.50;99.90
7720;DHT22;3902;49.474;8.616;2022-09-01T03:55:20;19.60;99.90
7720;DHT22;3902;49.474;8.616;2022-09-01T03:57:48;19.50;99.90
7720;DHT22;3902;49.474;8.616;2022-09-01T04:00:15;19.50;99.90
7720;DHT22;3902;49.474;8.616;2022-09-01T04:02:46;19.50;99.90
7720;DHT22;3902;49.474;8.616;2022-09-01T04:05:15;19.50;99.90
7720;DHT22;3902;49.474;8.616;2022-09-01T04:07:40;19.40;99.90
7720;DHT22;3902;49.474;8.616;2022-09-01T04:10:09;19.40;99.90
7720;DHT22;3902;49.474;8.616;2022-09-01T04:12:36;19.40;99.90
7720;DHT22;3902;49.474;8.616;2022-09-01T04:15:03;19.40;99.90
7720;DHT22;3902;49.474;8.616;2022-09-01T04:17:30;19.40;99.90
7720;DHT22;3902;49.474;8.616;2022-09-01T04:20:14;19.40;99.90
7720;DHT22;3902;49.474;8.616;2022-09-01T04:22:44;19.30;99.90
7720;DHT22;3902;49.474;8.616;2022-09-01T04:25:12;19.30;99.90
7720;DHT22;3902;49.474;8.616;2022-09-01T04:27:38;19.20;99.90
7720;DHT22;3902;49.474;8.616;2022-09-01T04:30:05;19.20;99.90
7720;DHT22;3902;49.474;8.616;2022-09-01T04:32:35;19.20;99.90
7720;DHT22;3902;49.474;8.616;2022-09-01T04:35:03;19.20;99.90
7720;DHT22;3902;49.474;8.616;2022-09-01T04:37:29;19.10;99.90
7720;DHT22;3902;49.474;8.616;2022-09-01T04:39:55;19.10;99.90
7720;DHT22;3902;49.474;8.616;2022-09-01T04:42:24;19.10;99.90
7720;DHT22;3902;49.474;8.616;2022-09-01T04:44:50;19.10;99.90
7720;DHT22;3902;49.474;8.616;2022-09-01T04:47:18;19.10;99.90
7720;DHT22;3902;49.474;8.616;2022-09-01T04:49:45;19.10;99.90
7720;DHT22;3902;49.474;8.616;2022-09-01T04:52:12;19.10;99.90
7720;DHT22;3902;49.474;8.616;2022-09-01T04:54:38;19.10;99.90
7720;DHT22;3902;49.474;8.616;2022-09-01T04:57:05;19.00;99.90
7720;DHT22;3902;49.474;8.616;2022-09-01T04:59:32;19.00;99.90
7720;DHT22;3902;49.474;8.616;2022-09-01T05:01:58;19.00;99.90
7720;DHT22;3902;49.474;8.616;2022-09-01T05:04:28;19.00;99.90
7720;DHT22;3902;49.474;8.616;2022-09-01T05:06:59;19.00;99.90
7720;DHT22;3902;49.474;8.616;2022-09-01T05:09:27;19.00;99.90
7720;DHT22;3902;49.474;8.616;2022-09-01T05:11:54;19.00;99.90
7720;DHT22;3902;49.474;8.616;2022-09-01T05:14:21;18.90;99.90
7720;DHT22;3902;49.474;8.616;2022-09-01T05:16:48;18.90;99.90
7720;DHT22;3902;49.474;8.616;2022-09-01T05:19:16;18.90;99.90
7720;DHT22;3902;49.474;8.616;2022-09-01T05:21:43;18.90;99.90
7720;DHT22;3902;49.474;8.616;2022-09-01T05:24:18;18.90;99.90
7720;DHT22;3902;49.474;8.616;2022-09-01T05:26:46;18.90;99.90
7720;DHT22;3902;49.474;8.616;2022-09-01T05:29:14;18.90;99.90
7720;DHT22;3902;49.474;8.616;2022-09-01T05:31:41;18.90;99.90
7720;DHT22;3902;49.474;8.616;2022-09-01T05:34:08;18.90;99.90
7720;DHT22;3902;49.474;8.616;2022-09-01T05:36:34;18.90;99.90
7720;DHT22;3902;49.474;8.616;2022-09-01T05:39:02;18.90;99.90
7720;DHT22;3902;49.474;8.616;2022-09-01T05:41:29;18.90;99.90
7720;DHT22;3902;49.474;8.616;2022-09-01T05:43:55;18.90;99.90
7720;DHT22;3902;49.474;8.616;2022-09-01T05:46:23;18.90;99.90
7720;DHT22;3902;49.474;8.616;2022-09-01T05:48:52;19.00;99.90
7720;DHT22;3902;49.474;8.616;2022-09-01T05:51:20;19.00;99.90
7720;DHT22;3902;49.474;8.616;2022-09-01T05:53:51;19.00;99.90
7720;DHT22;3902;49.474;8.616;2022-09-01T05:56:18;19.00;99.90
7720;DHT22;3902;49.474;8.616;2022-09-01T05:58:45;19.00;99.90
7720;DHT22;3902;49.474;8.616;2022-09-01T06:01:30;19.00;99.90
7720;DHT22;3902;49.474;8.616;2022-09-01T06:03:59;19.10;99.90
7720;DHT22;3902;49.474;8.616;2022-09-01T06:06:33;19.10;99.90
7720;DHT22;3902;49.474;8.616;2022-09-01T06:09:04;19.20;99.90
7720;DHT22;3902;49.474;8.616;2022-09-01T06:11:30;19.20;99.90
7720;DHT22;3902;49.474;8.616;2022-09-01T06:13:57;19.20;99.90
7720;DHT22;3902;49.474;8.616;2022-09-01T06:16:24;19.30;99.90
7720;DHT22;3902;49.474;8.616;2022-09-01T06:18:50;19.30;99.90
7720;DHT22;3902;49.474;8.616;2022-09-01T06:21:18;19.40;99.90
7720;DHT22;3902;49.474;8.616;2022-09-01T06:23:44;19.40;99.90
7720;DHT22;3902;49.474;8.616;2022-09-01T06:26:27;19.40;99.90
7720;DHT22;3902;49.474;8.616;2022-09-01T06:28:55;19.40;99.90
7720;DHT22;3902;49.474;8.616;2022-09-01T06:31:22;19.50;99.90
7720;DHT22;3902;49.474;8.616;2022-09-01T06:33:53;19.50;99.90
7720;DHT22;3902;49.474;8.616;2022-09-01T06:36:22;19.60;99.90
7720;DHT22;3902;49.474;8.616;2022-09-01T06:38:52;19.60;99.90
7720;DHT22;3902;49.474;8.616;2022-09-01T06:41:19;19.60;99.90
7720;DHT22;3902;49.474;8.616;2022-09-01T06:43:47;19.70;99.90
7720;DHT22;3902;49.474;8.616;2022-09-01T06:46:14;19.70;99.90
7720;DHT22;3902;49.474;8.616;2022-09-01T06:48:40;19.80;99.90
7720;DHT22;3902;49.474;8.616;2022-09-01T06:51:18;19.90;99.90
7720;DHT22;3902;49.474;8.616;2022-09-01T06:53:46;19.90;99.90
7720;DHT22;3902;49.474;8.616;2022-09-01T06:56:16;19.90;99.90
7720;DHT22;3902;49.474;8.616;2022-09-01T06:58:44;20.00;99.90
7720;DHT22;3902;49.474;8.616;2022-09-01T07:01:16;20.00;99.90
7720;DHT22;3902;49.474;8.616;2022-09-01T07:03:47;20.10;99.90
7720;DHT22;3902;49.474;8.616;2022-09-01T07:06:14;20.20;99.90
7720;DHT22;3902;49.474;8.616;2022-09-01T07:08:40;20.10;99.90
7720;DHT22;3902;49.474;8.616;2022-09-01T07:11:19;20.20;99.90
7720;DHT22;3902;49.474;8.616;2022-09-01T07:13:49;20.30;99.90
7720;DHT22;3902;49.474;8.616;2022-09-01T07:16:19;20.40;99.90
7720;DHT22;3902;49.474;8.616;2022-09-01T07:18:47;20.50;99.90
7720;DHT22;3902;49.474;8.616;2022-09-01T07:21:13;20.50;99.90
7720;DHT22;3902;49.474;8.616;2022-09-01T07:23:39;20.60;99.90
7720;DHT22;3902;49.474;8.616;2022-09-01T07:26:05;20.70;99.90
7720;DHT22;3902;49.474;8.616;2022-09-01T07:28:31;20.80;99.90
7720;DHT22;3902;49.474;8.616;2022-09-01T07:30:57;20.90;99.90
7720;DHT22;3902;49.474;8.616;2022-09-01T07:33:23;20.80;99.90
7720;DHT22;3902;49.474;8.616;2022-09-01T07:35:50;20.50;99.90
7720;DHT22;3902;49.474;8.616;2022-09-01T07:38:21;20.50;99.90
7720;DHT22;3902;49.474;8.616;2022-09-01T07:40:47;20.40;99.90
7720;DHT22;3902;49.474;8.616;2022-09-01T07:43:23;20.40;99.90
7720;DHT22;3902;49.474;8.616;2022-09-01T07:45:52;20.50;99.90
7720;DHT22;3902;49.474;8.616;2022-09-01T07:48:21;20.50;99.90
7720;DHT22;3902;49.474;8.616;2022-09-01T07:50:49;20.50;99.90
7720;DHT22;3902;49.474;8.616;2022-09-01T07:53:35;20.60;99.90
7720;DHT22;3902;49.474;8.616;2022-09-01T07:56:07;20.70;99.90
7720;DHT22;3902;49.474;8.616;2022-09-01T07:58:36;20.70;99.90
7720;DHT22;3902;49.474;8.616;2022-09-01T08:01:24;20.80;99.90
7720;DHT22;3902;49.474;8.616;2022-09-01T08:03:53;20.80;99.90
7720;DHT22;3902;49.474;8.616;2022-09-01T08:06:21;20.80;99.90
7720;DHT22;3902;49.474;8.616;2022-09-01T08:08:49;20.90;99.90
7720;DHT22;3902;49.474;8.616;2022-09-01T08:11:18;21.00;99.90
7720;DHT22;3902;49.474;8.616;2022-09-01T08:13:44;21.00;99.90
7720;DHT22;3902;49.474;8.616;2022-09-01T08:16:10;21.10;99.90
7720;DHT22;3902;49.474;8.616;2022-09-01T08:18:36;21.10;99.90
7720;DHT22;3902;49.474;8.616;2022-09-01T08:21:09;21.10;99.90
7720;DHT22;3902;49.474;8.616;2022-09-01T08:23:36;21.10;99.90
7720;DHT22;3902;49.474;8.616;2022-09-01T08:26:07;21.10;99.90
7720;DHT22;3902;49.474;8.616;2022-09-01T08:28:33;21.10;99.90
7720;DHT22;3902;49.474;8.616;2022-09-01T08:30:59;21.10;99.90
7720;DHT22;3902;49.474;8.616;2022-09-01T08:33:26;21.20;99.90
7720;DHT22;3902;49.474;8.616;2022-09-01T08:35:52;21.20;99.90
7720;DHT22;3902;49.474;8.616;2022-09-01T08:38:18;21.30;99.90
7720;DHT22;3902;49.474;8.616;2022-09-01T08:40:52;21.30;99.90
7720;DHT22;3902;49.474;8.616;2022-09-01T08:45:58;21.40;99.90
7720;DHT22;3902;49.474;8.616;2022-09-01T08:48:33;21.50;99.90
7720;DHT22;3902;49.474;8.616;2022-09-01T08:51:13;21.60;99.90
7720;DHT22;3902;49.474;8.616;2022-09-01T08:53:48;21.70;99.90
7720;DHT22;3902;49.474;8.616;2022-09-01T08:56:18;21.90;99.90
7720;DHT22;3902;49.474;8.616;2022-09-01T08:58:44;22.00;99.90
7720;DHT22;3902;49.474;8.616;2022-09-01T09:01:28;22.10;99.90
7720;DHT22;3902;49.474;8.616;2022-09-01T09:04:20;22.20;99.90
7720;DHT22;3902;49.474;8.616;2022-09-01T09:07:07;22.30;99.90
7720;DHT22;3902;49.474;8.616;2022-09-01T09:09:50;22.50;99.90
7720;DHT22;3902;49.474;8.616;2022-09-01T09:15:42;22.70;99.90
7720;DHT22;3902;49.474;8.616;2022-09-01T09:18:29;22.80;99.90
7720;DHT22;3902;49.474;8.616;2022-09-01T09:21:11;23.00;99.90
7720;DHT22;3902;49.474;8.616;2022-09-01T09:23:41;23.00;99.90
7720;DHT22;3902;49.474;8.616;2022-09-01T09:26:07;23.10;99.90
7720;DHT22;3902;49.474;8.616;2022-09-01T09:28:33;23.10;99.90
7720;DHT22;3902;49.474;8.616;2022-09-01T09:31:25;23.10;99.90
7720;DHT22;3902;49.474;8.616;2022-09-01T09:33:50;23.10;99.90
7720;DHT22;3902;49.474;8.616;2022-09-01T09:36:22;23.20;99.90
7720;DHT22;3902;49.474;8.616;2022-09-01T09:39:07;23.20;99.90
7720;DHT22;3902;49.474;8.616;2022-09-01T09:41:34;23.40;99.90
7720;DHT22;3902;49.474;8.616;2022-09-01T09:46:44;23.70;99.90
7720;DHT22;3902;49.474;8.616;2022-09-01T09:49:29;23.80;99.90
7720;DHT22;3902;49.474;8.616;2022-09-01T09:51:57;23.90;99.90
7720;DHT22;3902;49.474;8.616;2022-09-01T09:54:58;23.90;99.90
7720;DHT22;3902;49.474;8.616;2022-09-01T09:57:24;24.00;99.90
7720;DHT22;3902;49.474;8.616;2022-09-01T10:00:21;24.00;99.90
7720;DHT22;3902;49.474;8.616;2022-09-01T10:02:51;24.00;99.90
7720;DHT22;3902;49.474;8.616;2022-09-01T10:05:26;24.10;99.90
7720;DHT22;3902;49.474;8.616;2022-09-01T10:07:53;24.10;99.90
7720;DHT22;3902;49.474;8.616;2022-09-01T10:10:46;24.10;99.90
7720;DHT22;3902;49.474;8.616;2022-09-01T10:13:18;24.10;99.90
7720;DHT22;3902;49.474;8.616;2022-09-01T10:15:54;24.10;99.90
7720;DHT22;3902;49.474;8.616;2022-09-01T10:18:23;24.10;99.90
7720;DHT22;3902;49.474;8.616;2022-09-01T10:21:37;24.20;99.90
7720;DHT22;3902;49.474;8.616;2022-09-01T10:24:10;24.20;99.90
7720;DHT22;3902;49.474;8.616;2022-09-01T10:26:38;24.10;99.90
7720;DHT22;3902;49.474;8.616;2022-09-01T10:31:39;24.00;99.90
7720;DHT22;3902;49.474;8.616;2022-09-01T10:34:06;24.00;99.90
7720;DHT22;3902;49.474;8.616;2022-09-01T10:36:36;24.00;99.90
7720;DHT22;3902;49.474;8.616;2022-09-01T10:39:03;24.00;99.90
7720;DHT22;3902;49.474;8.616;2022-09-01T10:41:48;24.00;99.90
7720;DHT22;3902;49.474;8.616;2022-09-01T10:44:24;24.10;99.90
7720;DHT22;3902;49.474;8.616;2022-09-01T10:46:56;24.20;99.90
7720;DHT22;3902;49.474;8.616;2022-09-01T10:51:52;24.40;99.90
7720;DHT22;3902;49.474;8.616;2022-09-01T10:57:18;24.50;99.90
7720;DHT22;3902;49.474;8.616;2022-09-01T10:59:46;24.50;99.90
7720;DHT22;3902;49.474;8.616;2022-09-01T11:02:14;24.50;99.90
7720;DHT22;3902;49.474;8.616;2022-09-01T11:15:38;24.40;99.90
7720;DHT22;3902;49.474;8.616;2022-09-01T11:18:15;24.40;99.90
7720;DHT22;3902;49.474;8.616;2022-09-01T11:20:41;24.40;99.90
7720;DHT22;3902;49.474;8.616;2022-09-01T11:30:58;28.30;99.90
7720;DHT22;3902;49.474;8.616;2022-09-01T11:36:05;30.30;95.20
7720;DHT22;3902;49.474;8.616;2022-09-01T11:38:42;30.30;92.90
7720;DHT22;3902;49.474;8.616;2022-09-01T11:41:53;30.20;92.50
7720;DHT22;3902;49.474;8.616;2022-09-01T11:44:15;30.00;93.10
7720;DHT22;3902;49.474;8.616;2022-09-01T11:46:43;29.90;93.00
7720;DHT22;3902;49.474;8.616;2022-09-01T11:49:34;30.10;92.60
7720;DHT22;3902;49.474;8.616;2022-09-01T11:52:02;30.80;92.10
7720;DHT22;3902;49.474;8.616;2022-09-01T11:54:31;31.40;90.50
7720;DHT22;3902;49.474;8.616;2022-09-01T11:57:28;31.70;88.30
7720;DHT22;3902;49.474;8.616;2022-09-01T11:59:56;32.00;89.60
7720;DHT22;3902;49.474;8.616;2022-09-01T12:02:31;32.60;86.20
7720;DHT22;3902;49.474;8.616;2022-09-01T12:04:59;32.50;85.50
7720;DHT22;3902;49.474;8.616;2022-09-01T12:07:34;32.60;84.70
7720;DHT22;3902;49.474;8.616;2022-09-01T12:10:02;32.70;85.10
7720;DHT22;3902;49.474;8.616;2022-09-01T12:12:37;32.40;83.00
7720;DHT22;3902;49.474;8.616;2022-09-01T12:15:21;32.10;82.70
7720;DHT22;3902;49.474;8.616;2022-09-01T12:17:48;31.70;83.00
7720;DHT22;3902;49.474;8.616;2022-09-01T12:20:33;31.20;84.50
7720;DHT22;3902;49.474;8.616;2022-09-01T12:22:59;30.50;83.80
7720;DHT22;3902;49.474;8.616;2022-09-01T12:25:30;30.20;86.10
7720;DHT22;3902;49.474;8.616;2022-09-01T12:27:59;30.40;86.40
7720;DHT22;3902;49.474;8.616;2022-09-01T12:30:25;30.80;85.10
7720;DHT22;3902;49.474;8.616;2022-09-01T12:32:52;31.40;83.30
7720;DHT22;3902;49.474;8.616;2022-09-01T12:35:23;32.10;82.40
7720;DHT22;3902;49.474;8.616;2022-09-01T12:37:49;32.80;81.10
7720;DHT22;3902;49.474;8.616;2022-09-01T12:40:46;33.60;77.20
7720;DHT22;3902;49.474;8.616;2022-09-01T12:43:35;33.90;74.40
7720;DHT22;3902;49.474;8.616;2022-09-01T12:46:01;34.30;74.20
7720;DHT22;3902;49.474;8.616;2022-09-01T12:48:33;34.30;74.10
7720;DHT22;3902;49.474;8.616;2022-09-01T12:51:19;34.20;71.80
7720;DHT22;3902;49.474;8.616;2022-09-01T12:53:57;34.10;73.20
7720;DHT22;3902;49.474;8.616;2022-09-01T12:56:29;34.20;73.00
7720;DHT22;3902;49.474;8.616;2022-09-01T12:59:08;34.30;70.80
7720;DHT22;3902;49.474;8.616;2022-09-01T13:01:35;34.30;69.90
7720;DHT22;3902;49.474;8.616;2022-09-01T13:06:45;35.10;68.50
7720;DHT22;3902;49.474;8.616;2022-09-01T13:09:11;35.10;66.80
7720;DHT22;3902;49.474;8.616;2022-09-01T13:11:37;35.20;67.70
7720;DHT22;3902;49.474;8.616;2022-09-01T13:14:03;35.40;68.80
7720;DHT22;3902;49.474;8.616;2022-09-01T13:16:28;35.30;68.50
7720;DHT22;3902;49.474;8.616;2022-09-01T13:18:54;35.10;68.60
7720;DHT22;3902;49.474;8.616;2022-09-01T13:21:20;34.80;68.60
7720;DHT22;3902;49.474;8.616;2022-09-01T13:23:46;33.80;68.70
7720;DHT22;3902;49.474;8.616;2022-09-01T13:26:12;33.40;70.10
7720;DHT22;3902;49.474;8.616;2022-09-01T13:28:38;32.30;69.70
7720;DHT22;3902;49.474;8.616;2022-09-01T13:31:04;31.90;70.80
7720;DHT22;3902;49.474;8.616;2022-09-01T13:33:31;31.50;72.40
7720;DHT22;3902;49.474;8.616;2022-09-01T13:35:58;31.40;74.20
7720;DHT22;3902;49.474;8.616;2022-09-01T13:38:23;31.20;74.10
7720;DHT22;3902;49.474;8.616;2022-09-01T13:40:50;31.40;74.60
7720;DHT22;3902;49.474;8.616;2022-09-01T13:43:18;31.80;72.80
7720;DHT22;3902;49.474;8.616;2022-09-01T13:45:45;32.10;71.80
7720;DHT22;3902;49.474;8.616;2022-09-01T13:48:11;32.50;70.50
7720;DHT22;3902;49.474;8.616;2022-09-01T13:50:38;33.20;73.40
7720;DHT22;3902;49.474;8.616;2022-09-01T13:53:04;34.00;72.00
7720;DHT22;3902;49.474;8.616;2022-09-01T13:55:32;34.60;69.80
7720;DHT22;3902;49.474;8.616;2022-09-01T13:57:58;34.70;67.80
7720;DHT22;3902;49.474;8.616;2022-09-01T14:00:27;34.70;65.80
7720;DHT22;3902;49.474;8.616;2022-09-01T14:02:56;34.10;66.10
7720;DHT22;3902;49.474;8.616;2022-09-01T14:05:25;33.80;67.20
7720;DHT22;3902;49.474;8.616;2022-09-01T14:07:51;33.50;66.10
7720;DHT22;3902;49.474;8.616;2022-09-01T14:10:18;32.80;67.50
7720;DHT22;3902;49.474;8.616;2022-09-01T14:12:45;32.40;67.50
7720;DHT22;3902;49.474;8.616;2022-09-01T14:15:12;32.10;68.50
7720;DHT22;3902;49.474;8.616;2022-09-01T14:17:38;31.90;70.20
7720;DHT22;3902;49.474;8.616;2022-09-01T14:20:06;32.10;69.80
7720;DHT22;3902;49.474;8.616;2022-09-01T14:22:33;32.50;68.90
7720;DHT22;3902;49.474;8.616;2022-09-01T14:24:59;33.00;69.30
7720;DHT22;3902;49.474;8.616;2022-09-01T14:27:25;33.60;68.30
7720;DHT22;3902;49.474;8.616;2022-09-01T14:29:51;34.30;68.40
7720;DHT22;3902;49.474;8.616;2022-09-01T14:32:20;34.80;65.20
7720;DHT22;3902;49.474;8.616;2022-09-01T14:34:48;34.90;63.40
7720;DHT22;3902;49.474;8.616;2022-09-01T14:37:14;35.10;63.60
7720;DHT22;3902;49.474;8.616;2022-09-01T14:39:40;35.30;65.10
7720;DHT22;3902;49.474;8.616;2022-09-01T14:42:06;35.80;64.80
7720;DHT22;3902;49.474;8.616;2022-09-01T14:44:35;36.00;64.80
7720;DHT22;3902;49.474;8.616;2022-09-01T14:47:03;36.30;63.90
7720;DHT22;3902;49.474;8.616;2022-09-01T14:49:31;36.30;63.30
7720;DHT22;3902;49.474;8.616;2022-09-01T14:52:02;35.80;62.80
7720;DHT22;3902;49.474;8.616;2022-09-01T14:54:29;35.20;62.70
7720;DHT22;3902;49.474;8.616;2022-09-01T14:56:54;34.60;63.10
7720;DHT22;3902;49.474;8.616;2022-09-01T14:59:20;34.00;65.60
7720;DHT22;3902;49.474;8.616;2022-09-01T15:01:45;33.40;66.50
7720;DHT22;3902;49.474;8.616;2022-09-01T15:04:11;32.70;67.20
7720;DHT22;3902;49.474;8.616;2022-09-01T15:06:37;32.20;67.60
7720;DHT22;3902;49.474;8.616;2022-09-01T15:09:02;31.80;67.80
7720;DHT22;3902;49.474;8.616;2022-09-01T15:11:28;31.40;67.50
7720;DHT22;3902;49.474;8.616;2022-09-01T15:13:53;31.00;68.00
7720;DHT22;3902;49.474;8.616;2022-09-01T15:16:21;30.60;67.90
7720;DHT22;3902;49.474;8.616;2022-09-01T15:18:48;30.20;69.00
7720;DHT22;3902;49.474;8.616;2022-09-01T15:21:26;30.00;68.20
7720;DHT22;3902;49.474;8.616;2022-09-01T15:23:52;29.60;69.80
7720;DHT22;3902;49.474;8.616;2022-09-01T15:26:18;29.50;71.10
7720;DHT22;3902;49.474;8.616;2022-09-01T15:28:45;29.30;70.90
7720;DHT22;3902;49.474;8.616;2022-09-01T15:31:12;29.10;72.80
7720;DHT22;3902;49.474;8.616;2022-09-01T15:33:39;29.10;73.70
7720;DHT22;3902;49.474;8.616;2022-09-01T15:36:04;28.90;73.80
7720;DHT22;3902;49.474;8.616;2022-09-01T15:38:30;28.80;74.20
7720;DHT22;3902;49.474;8.616;2022-09-01T15:40:56;28.70;75.00
7720;DHT22;3902;49.474;8.616;2022-09-01T15:43:21;28.60;75.50
7720;DHT22;3902;49.474;8.616;2022-09-01T15:45:47;28.60;75.50
7720;DHT22;3902;49.474;8.616;2022-09-01T15:48:13;28.50;75.70
7720;DHT22;3902;49.474;8.616;2022-09-01T15:50:39;28.40;75.90
7720;DHT22;3902;49.474;8.616;2022-09-01T15:53:07;28.30;75.50
7720;DHT22;3902;49.474;8.616;2022-09-01T15:55:48;28.20;75.60
7720;DHT22;3902;49.474;8.616;2022-09-01T15:58:16;28.10;76.10
7720;DHT22;3902;49.474;8.616;2022-09-01T16:00:42;28.10;76.20
7720;DHT22;3902;49.474;8.616;2022-09-01T16:03:09;28.00;76.00
7720;DHT22;3902;49.474;8.616;2022-09-01T16:05:36;28.00;77.40
7720;DHT22;3902;49.474;8.616;2022-09-01T16:08:03;27.90;78.00
7720;DHT22;3902;49.474;8.616;2022-09-01T16:10:30;27.80;78.10
7720;DHT22;3902;49.474;8.616;2022-09-01T16:12:56;27.80;78.00
7720;DHT22;3902;49.474;8.616;2022-09-01T16:15:23;27.70;78.30
7720;DHT22;3902;49.474;8.616;2022-09-01T16:21:02;27.40;78.30
7720;DHT22;3902;49.474;8.616;2022-09-01T16:23:38;27.30;78.70
7720;DHT22;3902;49.474;8.616;2022-09-01T16:26:05;27.30;79.40
7720;DHT22;3902;49.474;8.616;2022-09-01T16:28:34;27.30;79.30
7720;DHT22;3902;49.474;8.616;2022-09-01T16:31:16;27.20;79.80
7720;DHT22;3902;49.474;8.616;2022-09-01T16:33:50;27.20;79.90
7720;DHT22;3902;49.474;8.616;2022-09-01T16:36:27;27.10;79.20
7720;DHT22;3902;49.474;8.616;2022-09-01T16:39:16;27.00;79.30
7720;DHT22;3902;49.474;8.616;2022-09-01T16:45:00;26.80;79.50
7720;DHT22;3902;49.474;8.616;2022-09-01T16:47:37;26.90;79.80
7720;DHT22;3902;49.474;8.616;2022-09-01T16:52:55;26.70;79.40
7720;DHT22;3902;49.474;8.616;2022-09-01T17:06:27;26.50;81.40
7720;DHT22;3902;49.474;8.616;2022-09-01T17:09:56;26.40;81.50
7720;DHT22;3902;49.474;8.616;2022-09-01T17:11:52;26.30;81.70
7720;DHT22;3902;49.474;8.616;2022-09-01T17:14:41;26.20;81.20
7720;DHT22;3902;49.474;8.616;2022-09-01T17:17:11;26.00;81.00
7720;DHT22;3902;49.474;8.616;2022-09-01T17:19:40;25.80;80.50
7720;DHT22;3902;49.474;8.616;2022-09-01T17:22:09;25.80;81.20